Time;durP1;ratioP1;P1;durP2;ratioP2;P2;SDS_P1;SDS_P2;PMS_P1;PMS_P2;Temp;Humidity;BMP_temperature;BMP_pressure;BME280_temperature;BME280_humidity;BME280_pressure;Samples;Min_cycle;Max_cycle;Signal;HPM_P1;HPM_P2
2021/11/06 00:02:29;;;;;;;47.33;21.60;;;5.70;86.20;;;;;;4466548;28;658609;-79
2021/11/06 00:05:17;;;;;;;46.40;21.73;;;5.70;95.50;;;;;;4434346;28;658608;-78
2021/11/06 00:08:05;;;;;;;44.43;20.67;;;5.70;94.80;;;;;;4468155;28;657272;-79
2021/11/06 00:10:53;;;;;;;44.07;19.03;;;5.70;95.10;;;;;;4440088;28;658166;-79
2021/11/06 00:13:40;;;;;;;44.50;21.00;;;5.60;98.50;;;;;;4442844;28;657810;-78
2021/11/06 00:16:28;;;;;;;45.07;20.57;;;5.70;99.90;;;;;;4454956;28;659023;-79
2021/11/06 00:19:17;;;;;;;48.77;21.70;;;5.70;99.90;;;;;;4416019;28;658236;-79
2021/11/06 00:22:06;;;;;;;44.00;20.77;;;5.60;99.90;;;;;;4437549;28;657341;-79
2021/11/06 00:24:54;;;;;;;42.50;20.50;;;5.60;99.90;;;;;;4436766;28;657878;-79
2021/11/06 00:27:42;;;;;;;41.25;19.05;;;5.60;99.90;;;;;;4420958;28;657801;-79
2021/11/06 00:30:29;;;;;;;46.27;21.73;;;5.60;99.90;;;;;;4453366;27;658066;-79
2021/11/06 00:33:17;;;;;;;44.63;21.23;;;5.60;99.90;;;;;;4442229;27;657871;-79
2021/11/06 00:36:06;;;;;;;42.20;20.33;;;5.60;99.90;;;;;;4473559;27;657689;-79
2021/11/06 00:38:53;;;;;;;43.70;20.37;;;5.50;99.90;;;;;;4445483;27;658096;-78
2021/11/06 00:41:41;;;;;;;43.27;21.60;;;5.50;99.90;;;;;;4448410;27;658061;-78
2021/11/06 00:44:28;;;;;;;48.40;23.00;;;5.50;99.90;;;;;;4470773;27;658393;-79
2021/11/06 00:47:16;;;;;;;45.07;22.90;;;5.50;99.90;;;;;;4440450;28;658693;-79
2021/11/06 00:50:04;;;;;;;47.10;23.80;;;5.40;99.90;;;;;;4473508;27;658649;-79
2021/11/06 00:52:53;;;;;;;54.60;23.73;;;5.30;99.90;;;;;;4445469;27;657401;-79
2021/11/06 00:55:41;;;;;;;51.50;24.43;;;5.30;99.90;;;;;;4455491;27;658704;-78
2021/11/06 00:58:28;;;;;;;45.83;23.07;;;5.30;99.90;;;;;;4472112;27;658210;-79
2021/11/06 01:01:16;;;;;;;47.67;21.23;;;5.30;99.90;;;;;;4456786;27;658263;-78
2021/11/06 01:04:04;;;;;;;44.37;21.30;;;5.20;99.90;;;;;;4471217;27;658669;-78
2021/11/06 01:06:52;;;;;;;41.17;19.30;;;5.20;99.90;;;;;;4454822;27;657326;-79
2021/11/06 01:09:41;;;;;;;47.00;20.60;;;5.20;99.90;;;;;;4479621;27;656916;-79
2021/11/06 01:12:28;;;;;;;39.53;18.43;;;5.20;99.90;;;;;;4448853;27;657965;-79
2021/11/06 01:15:16;;;;;;;40.33;20.53;;;5.10;99.90;;;;;;4454470;27;657764;-78
2021/11/06 01:18:04;;;;;;;40.93;19.83;;;5.10;99.90;;;;;;4472362;27;658999;-79
2021/11/06 01:20:51;;;;;;;43.27;20.03;;;5.10;99.90;;;;;;4444339;28;657387;-78
2021/11/06 01:23:39;;;;;;;41.13;19.80;;;5.10;99.90;;;;;;4473484;27;658462;-78
2021/11/06 01:26:28;;;;;;;37.13;18.77;;;5.00;99.90;;;;;;4451260;27;658093;-79
2021/11/06 01:29:15;;;;;;;36.27;18.27;;;5.00;99.90;;;;;;4457749;27;657397;-79
2021/11/06 01:32:03;;;;;;;41.47;18.73;;;4.90;99.90;;;;;;4482568;27;658927;-79
2021/11/06 01:34:51;;;;;;;38.87;19.27;;;5.00;99.90;;;;;;4462303;27;657511;-79
2021/11/06 01:37:39;;;;;;;40.60;18.93;;;4.90;99.90;;;;;;4478596;27;658958;-79
2021/11/06 01:40:26;;;;;;;40.63;20.27;;;4.90;99.90;;;;;;4449368;27;657721;-79
2021/11/06 01:43:16;;;;;;;40.87;19.63;;;4.80;99.90;;;;;;4481932;27;657584;-79
2021/11/06 01:46:05;;;;;;;40.37;19.37;;;4.90;99.90;;;;;;4436744;27;658828;-79
2021/11/06 01:48:52;;;;;;;38.70;19.63;;;4.80;99.90;;;;;;4440774;27;658155;-79
2021/11/06 01:51:40;;;;;;;43.20;20.50;;;4.80;99.90;;;;;;4473296;27;657543;-77
2021/11/06 01:54:28;;;;;;;40.43;19.50;;;4.80;99.90;;;;;;4473648;27;659441;-79
2021/11/06 01:57:16;;;;;;;42.43;20.00;;;4.80;99.90;;;;;;4462462;27;658254;-79
2021/11/06 02:00:07;;;;;;;40.50;19.13;;;4.80;99.90;;;;;;4484516;27;658445;-79
2021/11/06 02:02:55;;;;;;;42.93;19.60;;;4.80;99.90;;;;;;4462774;27;657811;-78
2021/11/06 02:05:42;;;;;;;46.13;20.57;;;4.90;99.90;;;;;;4459683;27;658323;-79
2021/11/06 02:08:31;;;;;;;42.40;20.50;;;4.90;99.90;;;;;;4466811;27;657331;-78
2021/11/06 02:11:18;;;;;;;41.73;20.17;;;4.90;99.90;;;;;;4481695;27;658084;-79
2021/11/06 02:14:06;;;;;;;34.77;17.77;;;4.90;99.90;;;;;;4456081;27;658020;-79
2021/11/06 02:16:55;;;;;;;41.83;20.23;;;4.90;99.90;;;;;;4472099;27;658449;-80
2021/11/06 02:19:43;;;;;;;44.55;21.08;;;4.90;99.90;;;;;;4448653;27;658056;-79
2021/11/06 02:22:33;;;;;;;43.47;20.20;;;4.90;99.90;;;;;;4457339;27;657772;-79
2021/11/06 02:25:21;;;;;;;39.87;19.27;;;4.90;99.90;;;;;;4460702;27;657497;-79
2021/11/06 02:28:08;;;;;;;39.10;20.10;;;4.90;99.90;;;;;;4472683;27;659675;-79
2021/11/06 02:30:56;;;;;;;40.83;20.73;;;4.90;99.90;;;;;;4448169;27;657984;-79
2021/11/06 02:33:43;;;;;;;38.80;20.97;;;4.90;99.90;;;;;;4476236;27;657815;-79
2021/11/06 02:36:31;;;;;;;44.87;23.30;;;4.90;99.90;;;;;;4448088;27;658103;-79
2021/11/06 02:39:23;;;;;;;42.50;22.03;;;4.90;99.90;;;;;;4477623;27;658612;-79
2021/11/06 02:42:11;;;;;;;42.53;21.52;;;4.90;99.90;;;;;;4446261;27;657409;-78
2021/11/06 02:44:58;;;;;;;45.00;21.23;;;4.80;99.90;;;;;;4472009;27;658548;-79
2021/11/06 02:47:46;;;;;;;40.23;20.70;;;4.80;99.90;;;;;;4458316;27;657765;-78
2021/11/06 02:50:33;;;;;;;44.00;20.70;;;4.80;99.90;;;;;;4471155;27;658461;-79
2021/11/06 02:53:21;;;;;;;37.67;21.20;;;4.70;99.90;;;;;;4458816;27;657363;-78
2021/11/06 02:56:10;;;;;;;38.17;21.30;;;4.60;99.90;;;;;;4479293;27;657633;-79
2021/11/06 02:58:57;;;;;;;43.90;21.47;;;4.60;99.90;;;;;;4449473;27;658844;-79
2021/11/06 03:01:45;;;;;;;37.00;20.40;;;4.60;99.90;;;;;;4480981;27;657454;-79
2021/11/06 03:04:35;;;;;;;41.20;21.00;;;4.50;99.90;;;;;;4450153;27;658600;-79
2021/11/06 03:07:24;;;;;;;40.43;20.87;;;4.50;99.90;;;;;;4440225;27;658315;-79
2021/11/06 03:10:12;;;;;;;48.80;22.63;;;4.50;99.90;;;;;;4451712;27;658101;-79
2021/11/06 03:13:01;;;;;;;41.10;22.53;;;4.50;99.90;;;;;;4470503;27;657748;-79
2021/11/06 03:15:48;;;;;;;42.83;22.20;;;4.50;99.90;;;;;;4453234;28;658333;-80
2021/11/06 03:18:38;;;;;;;43.03;21.53;;;4.40;99.90;;;;;;4454226;28;657510;-77
2021/11/06 03:21:28;;;;;;;41.90;22.50;;;4.40;99.90;;;;;;4461058;28;657847;-78
2021/11/06 03:24:16;;;;;;;38.60;20.98;;;4.40;99.90;;;;;;4462326;28;658979;-78
2021/11/06 03:27:07;;;;;;;39.40;21.67;;;4.30;99.90;;;;;;4479513;28;658070;-79
2021/11/06 03:29:59;;;;;;;35.70;20.70;;;4.30;99.90;;;;;;4454402;28;658144;-79
2021/11/06 03:32:48;;;;;;;37.50;21.10;;;4.20;99.90;;;;;;4440432;28;657994;-79
2021/11/06 03:35:38;;;;;;;42.00;21.53;;;4.20;99.90;;;;;;4436565;28;657739;-78
2021/11/06 03:38:31;;;;;;;35.80;21.27;;;4.20;99.90;;;;;;4442778;28;658755;-78
2021/11/06 03:41:20;;;;;;;34.70;21.30;;;4.20;99.90;;;;;;4434058;28;657881;-79
2021/11/06 03:44:09;;;;;;;38.67;21.07;;;4.10;99.90;;;;;;4422140;28;657224;-79
2021/11/06 03:46:58;;;;;;;39.23;21.40;;;4.10;99.90;;;;;;4441581;28;657560;-79
2021/11/06 03:49:46;;;;;;;40.57;21.43;;;4.00;99.90;;;;;;4411710;28;657916;-79
2021/11/06 03:52:34;;;;;;;36.60;20.33;;;4.00;99.90;;;;;;4450914;28;658821;-79
2021/11/06 03:55:21;;;;;;;37.80;20.30;;;3.90;99.90;;;;;;4440181;28;657638;-79
2021/11/06 03:58:09;;;;;;;33.10;19.90;;;3.90;99.90;;;;;;4461237;28;658056;-79
2021/11/06 04:00:57;;;;;;;34.70;18.10;;;3.90;99.90;;;;;;4430786;28;657847;-79
2021/11/06 04:03:46;;;;;;;35.77;19.10;;;3.90;99.90;;;;;;4442616;28;658029;-79
2021/11/06 04:06:33;;;;;;;37.13;20.03;;;3.90;99.90;;;;;;4430959;28;657976;-78
2021/11/06 04:09:21;;;;;;;33.17;18.77;;;3.90;99.90;;;;;;4413757;28;658021;-78
2021/11/06 04:12:09;;;;;;;33.72;18.80;;;3.90;99.90;;;;;;4443700;28;658257;-79
2021/11/06 04:14:58;;;;;;;33.90;18.80;;;4.00;99.90;;;;;;4422228;28;658049;-79
2021/11/06 04:17:46;;;;;;;35.27;19.00;;;4.00;99.90;;;;;;4446122;28;657505;-79
2021/11/06 04:20:38;;;;;;;32.13;17.43;;;4.00;99.90;;;;;;4437520;28;657366;-79
2021/11/06 04:23:27;;;;;;;32.40;16.73;;;4.10;99.90;;;;;;4418552;28;658226;-78
2021/11/06 04:26:18;;;;;;;31.03;17.40;;;4.20;99.90;;;;;;4467123;28;657244;-79
2021/11/06 04:29:08;;;;;;;27.83;16.07;;;4.20;99.90;;;;;;4443667;28;657926;-79
2021/11/06 04:31:56;;;;;;;30.13;16.07;;;4.30;99.90;;;;;;4452745;27;657707;-79
2021/11/06 04:34:45;;;;;;;28.40;16.00;;;4.30;99.90;;;;;;4475578;27;658636;-78
2021/11/06 04:37:39;;;;;;;27.97;15.83;;;4.40;99.90;;;;;;4449778;27;658625;-78
2021/11/06 04:40:33;;;;;;;26.47;15.03;;;4.50;99.90;;;;;;4451346;27;658205;-79
2021/11/06 04:43:20;;;;;;;26.25;14.93;;;4.50;99.90;;;;;;4416208;27;658023;-79
2021/11/06 04:46:08;;;;;;;27.60;16.90;;;4.50;99.90;;;;;;4457223;27;658746;-79
2021/11/06 04:48:56;;;;;;;26.70;15.20;;;4.50;99.90;;;;;;4451016;27;657757;-79
2021/11/06 04:51:44;;;;;;;30.17;17.33;;;4.60;99.90;;;;;;4474917;27;657665;-79
2021/11/06 04:54:33;;;;;;;28.53;16.93;;;4.60;99.90;;;;;;4452470;27;657708;-79
2021/11/06 04:57:21;;;;;;;27.87;16.40;;;4.60;99.90;;;;;;4445276;27;657797;-78
2021/11/06 05:00:10;;;;;;;27.00;15.97;;;4.60;99.90;;;;;;4476335;27;657845;-79
2021/11/06 05:02:58;;;;;;;26.37;15.80;;;4.60;99.90;;;;;;4450442;27;658360;-79
2021/11/06 05:05:46;;;;;;;26.20;15.35;;;4.60;99.90;;;;;;4454014;27;658031;-79
2021/11/06 05:08:33;;;;;;;27.53;16.63;;;4.60;99.90;;;;;;4473510;27;657649;-79
2021/11/06 05:11:22;;;;;;;27.23;15.40;;;4.60;99.90;;;;;;4456779;27;657713;-79
2021/11/06 05:14:10;;;;;;;23.07;14.23;;;4.60;99.90;;;;;;4465737;27;657985;-79
2021/11/06 05:16:58;;;;;;;26.87;15.67;;;4.70;99.90;;;;;;4473557;27;658667;-79
2021/11/06 05:19:46;;;;;;;24.07;15.07;;;4.70;99.90;;;;;;4452083;27;658731;-79
2021/11/06 05:22:34;;;;;;;25.10;15.27;;;4.60;99.90;;;;;;4469343;27;658425;-80
2021/11/06 05:25:22;;;;;;;23.53;12.37;;;4.60;99.90;;;;;;4448834;27;657341;-79
2021/11/06 05:28:11;;;;;;;26.00;15.47;;;4.70;99.90;;;;;;4467080;27;657769;-79
2021/11/06 05:30:59;;;;;;;20.90;13.25;;;4.70;99.90;;;;;;4453067;27;658961;-78
2021/11/06 05:33:46;;;;;;;22.57;14.60;;;4.70;99.90;;;;;;4457781;27;658504;-78
2021/11/06 05:36:35;;;;;;;22.67;14.53;;;4.70;99.90;;;;;;4477445;27;657766;-78
2021/11/06 05:39:26;;;;;;;24.30;14.53;;;4.70;99.90;;;;;;4457267;27;658701;-78
2021/11/06 05:42:19;;;;;;;22.67;14.15;;;4.70;99.90;;;;;;4456379;27;658498;-78
2021/11/06 05:45:59;;;;;;;21.00;13.60;;;4.70;99.90;;;;;;4447675;27;657691;-78
2021/11/06 05:48:48;;;;;;;22.57;12.53;;;4.80;99.90;;;;;;4407998;28;658202;-79
2021/11/06 05:51:36;;;;;;;21.10;12.90;;;4.80;99.90;;;;;;4432264;28;657583;-78
2021/11/06 05:54:24;;;;;;;24.43;13.87;;;4.80;99.90;;;;;;4450962;28;658422;-78
2021/11/06 05:57:11;;;;;;;24.23;14.43;;;4.80;99.90;;;;;;4427396;28;657640;-77
2021/11/06 05:59:59;;;;;;;22.65;14.05;;;4.80;99.90;;;;;;4458273;28;659046;-78
2021/11/06 06:02:46;;;;;;;24.37;14.93;;;4.80;99.90;;;;;;4431122;28;657810;-78
2021/11/06 06:05:36;;;;;;;23.67;15.13;;;4.80;99.90;;;;;;4440238;28;658074;-78
2021/11/06 06:08:24;;;;;;;25.43;15.47;;;4.80;99.90;;;;;;4426143;28;658887;-78
2021/11/06 06:11:12;;;;;;;25.00;15.13;;;4.80;99.90;;;;;;4433264;28;657696;-79
2021/11/06 06:13:59;;;;;;;21.93;13.03;;;4.80;99.90;;;;;;4452914;28;656999;-78
2021/11/06 06:16:47;;;;;;;20.73;13.17;;;4.80;99.90;;;;;;4432312;28;657643;-78
2021/11/06 06:19:34;;;;;;;20.93;13.20;;;4.80;99.90;;;;;;4444036;28;658048;-77
2021/11/06 06:22:24;;;;;;;20.03;13.43;;;4.80;99.90;;;;;;4452093;27;658843;-78
2021/11/06 06:25:12;;;;;;;24.53;13.77;;;4.90;99.90;;;;;;4460911;27;657614;-77
2021/11/06 06:28:00;;;;;;;19.77;12.40;;;4.90;99.90;;;;;;4482750;27;657800;-77
2021/11/06 06:30:47;;;;;;;21.97;14.17;;;4.90;99.90;;;;;;4458206;27;658395;-78
2021/11/06 06:33:36;;;;;;;19.80;13.00;;;5.00;99.90;;;;;;4471086;27;658434;-78
2021/11/06 06:36:23;;;;;;;20.93;14.20;;;5.00;99.90;;;;;;4474031;27;659283;-77
2021/11/06 06:39:12;;;;;;;25.90;14.10;;;5.00;99.90;;;;;;4448243;27;657345;-78
2021/11/06 06:42:00;;;;;;;22.57;15.20;;;5.10;99.90;;;;;;4478787;27;657793;-78
2021/11/06 06:44:48;;;;;;;23.17;13.43;;;5.10;99.90;;;;;;4438163;27;658260;-78
2021/11/06 06:47:35;;;;;;;22.13;13.87;;;5.20;99.90;;;;;;4448905;27;658950;-78
2021/11/06 06:50:23;;;;;;;21.53;12.27;;;5.20;99.90;;;;;;4467025;27;658514;-77
2021/11/06 06:53:11;;;;;;;20.50;12.87;;;5.30;99.90;;;;;;4446645;27;658827;-78
2021/11/06 06:56:00;;;;;;;26.37;12.33;;;5.40;99.90;;;;;;4474132;27;658510;-78
2021/11/06 06:58:48;;;;;;;20.90;13.07;;;5.50;99.90;;;;;;4451917;27;658110;-78
2021/11/06 07:01:36;;;;;;;23.80;13.43;;;5.50;99.90;;;;;;4452886;27;657231;-77
2021/11/06 07:04:23;;;;;;;19.23;11.57;;;5.50;99.90;;;;;;4475546;27;657939;-79
2021/11/06 07:07:12;;;;;;;23.37;13.40;;;5.50;99.90;;;;;;4452348;27;657749;-78
2021/11/06 07:09:59;;;;;;;27.13;13.77;;;5.50;99.90;;;;;;4472541;27;657799;-78
2021/11/06 07:12:49;;;;;;;22.13;12.60;;;5.50;99.90;;;;;;4446440;27;657368;-78
2021/11/06 07:15:36;;;;;;;23.67;13.57;;;5.60;99.90;;;;;;4444112;28;658268;-77
2021/11/06 07:18:24;;;;;;;22.27;12.23;;;5.50;99.90;;;;;;4465864;28;657666;-77
2021/11/06 07:21:12;;;;;;;26.30;14.17;;;5.60;99.90;;;;;;4457998;27;657849;-78
2021/11/06 07:23:59;;;;;;;25.13;14.47;;;5.60;1.00;;;;;;4476605;27;657619;-78
2021/11/06 07:26:47;;;;;;;23.60;13.77;;;5.70;1.00;;;;;;4455194;28;656670;-77
2021/11/06 07:29:36;;;;;;;21.23;12.17;;;5.80;1.00;;;;;;4482361;28;657410;-77
2021/11/06 07:32:23;;;;;;;21.70;13.30;;;5.90;1.00;;;;;;4456117;28;656848;-78
2021/11/06 07:35:11;;;;;;;25.30;13.33;;;5.90;1.00;;;;;;4453823;28;656705;-78
2021/11/06 07:37:59;;;;;;;21.80;12.10;;;5.90;1.00;;;;;;4477896;28;657764;-78
2021/11/06 07:40:46;;;;;;;26.47;12.00;;;6.00;1.00;;;;;;4452381;28;656897;-78
2021/11/06 07:43:36;;;;;;;21.37;12.17;;;6.10;1.00;;;;;;4455978;28;656948;-77
2021/11/06 07:46:25;;;;;;;22.17;12.18;;;6.20;1.00;;;;;;4442931;28;656673;-77
2021/11/06 07:49:13;;;;;;;22.87;11.83;;;6.30;1.00;;;;;;4456829;27;657773;-77
2021/11/06 07:52:00;;;;;;;20.80;11.83;;;6.40;1.00;;;;;;4442435;27;657052;-78
2021/11/06 07:54:48;;;;;;;19.80;11.10;;;6.40;1.00;;;;;;4459099;27;658385;-77
2021/11/06 07:57:36;;;;;;;19.50;11.43;;;6.50;1.00;;;;;;4444191;27;657260;-77
2021/11/06 08:00:23;;;;;;;16.48;10.57;;;6.80;1.00;;;;;;4471852;27;656904;-77
2021/11/06 08:03:12;;;;;;;18.87;9.63;;;7.10;1.00;;;;;;4455998;27;656682;-77
2021/11/06 08:06:00;;;;;;;17.07;9.60;;;7.10;99.90;;;;;;4479671;27;655610;-76
2021/11/06 08:08:47;;;;;;;16.47;8.70;;;7.30;99.90;;;;;;4458593;27;657289;-74
2021/11/06 08:11:35;;;;;;;15.77;9.33;;;7.20;99.90;;;;;;4474863;27;657395;-75
2021/11/06 08:14:23;;;;;;;12.23;6.83;;;7.30;99.90;;;;;;4482022;27;658875;-74
2021/11/06 08:17:11;;;;;;;13.57;8.13;;;7.40;99.90;;;;;;4465494;27;656454;-74
2021/11/06 08:20:00;;;;;;;14.63;9.00;;;7.50;99.90;;;;;;4464868;27;656818;-75
2021/11/06 08:22:47;;;;;;;13.10;8.10;;;7.70;99.90;;;;;;4448194;27;658032;-75
2021/11/06 08:25:36;;;;;;;14.77;8.60;;;7.70;99.90;;;;;;4467491;27;656493;-76
2021/11/06 08:28:24;;;;;;;15.37;7.60;;;8.10;99.90;;;;;;4480820;27;658229;-75
2021/11/06 08:31:12;;;;;;;14.00;8.52;;;8.30;99.90;;;;;;4440647;27;657347;-75
2021/11/06 08:33:59;;;;;;;12.40;7.53;;;8.20;99.90;;;;;;4483127;27;656388;-76
2021/11/06 08:36:48;;;;;;;12.13;7.10;;;8.40;96.90;;;;;;4456220;27;656686;-75
2021/11/06 08:39:36;;;;;;;13.40;8.00;;;8.40;19.90;;;;;;4458537;27;656778;-74
2021/11/06 08:42:23;;;;;;;16.33;8.40;;;8.30;79.70;;;;;;4471303;27;657359;-74
2021/11/06 08:45:12;;;;;;;14.10;7.77;;;8.40;1.00;;;;;;4458791;27;657068;-76
2021/11/06 08:48:00;;;;;;;10.90;6.50;;;8.60;1.00;;;;;;4481970;27;656480;-74
2021/11/06 08:50:48;;;;;;;10.47;6.87;;;8.50;1.00;;;;;;4449249;27;656762;-75
2021/11/06 08:53:37;;;;;;;14.00;6.57;;;8.60;1.00;;;;;;4457533;28;655624;-76
2021/11/06 08:56:28;;;;;;;11.00;5.82;;;8.80;1.00;;;;;;4481378;27;655331;-75
2021/11/06 08:59:16;;;;;;;9.87;5.43;;;9.10;1.00;;;;;;4420679;27;656125;-75
2021/11/06 09:02:04;;;;;;;7.40;4.83;;;9.20;99.90;;;;;;4478395;27;654865;-74
2021/11/06 09:04:52;;;;;;;12.00;6.27;;;9.50;99.90;;;;;;4438844;27;655307;-74
2021/11/06 09:07:40;;;;;;;8.33;4.90;;;9.60;99.90;;;;;;4470118;27;658239;-76
2021/11/06 09:10:29;;;;;;;10.63;5.97;;;9.80;1.00;;;;;;4454642;27;656892;-74
2021/11/06 09:13:16;;;;;;;9.40;5.43;;;9.80;1.00;;;;;;4474977;27;655280;-75
2021/11/06 09:16:04;;;;;;;8.00;5.28;;;10.10;99.90;;;;;;4494822;27;654931;-73
2021/11/06 09:18:53;;;;;;;10.83;5.60;;;10.10;1.00;;;;;;4443816;27;656565;-74
2021/11/06 09:21:41;;;;;;;8.53;5.17;;;9.90;1.00;;;;;;4470315;27;656745;-76
2021/11/06 09:24:28;;;;;;;10.13;5.47;;;10.00;1.00;;;;;;4473058;27;655162;-75
2021/11/06 09:27:17;;;;;;;9.10;5.17;;;10.60;1.00;;;;;;4452529;27;656729;-76
2021/11/06 09:30:05;;;;;;;7.27;4.77;;;10.80;92.90;;;;;;4483745;27;654816;-75
2021/11/06 09:32:53;;;;;;;7.03;4.00;;;11.00;1.00;;;;;;4446756;27;657212;-73
2021/11/06 09:35:41;;;;;;;8.02;4.95;;;10.70;1.00;;;;;;4476081;27;655775;-72
2021/11/06 09:38:29;;;;;;;9.87;4.90;;;10.80;1.00;;;;;;4491625;27;656603;-75
2021/11/06 09:41:17;;;;;;;7.70;4.30;;;10.80;99.90;;;;;;4468806;27;655355;-74
2021/11/06 09:44:06;;;;;;;7.33;4.30;;;10.80;99.90;;;;;;4462126;27;656497;-75
2021/11/06 09:46:54;;;;;;;8.17;4.83;;;11.00;99.90;;;;;;4451155;27;655849;-74
2021/11/06 09:49:43;;;;;;;6.23;3.77;;;11.30;30.50;;;;;;4451803;27;656322;-74
2021/11/06 09:52:31;;;;;;;7.83;4.90;;;11.00;1.00;;;;;;4458316;27;656266;-76
2021/11/06 09:55:20;;;;;;;6.93;4.50;;;11.10;1.00;;;;;;4484523;27;656742;-75
2021/11/06 09:58:07;;;;;;;8.77;4.90;;;11.20;99.90;;;;;;4460535;27;656576;-76
2021/11/06 10:00:56;;;;;;;8.83;4.30;;;11.10;99.90;;;;;;4479262;27;656663;-75
2021/11/06 10:03:44;;;;;;;6.63;4.33;;;11.60;99.90;;;;;;4453779;27;657637;-74
2021/11/06 10:06:31;;;;;;;11.17;4.17;;;11.60;1.00;;;;;;4456533;27;656351;-76
2021/11/06 10:09:19;;;;;;;8.53;4.70;;;11.90;1.00;;;;;;4477221;27;656996;-75
2021/11/06 10:12:07;;;;;;;7.27;3.87;;;12.00;1.00;;;;;;4460482;27;655328;-74
2021/11/06 10:15:08;;;;;;;7.20;3.60;;;12.00;1.00;;;;;;4476525;27;655537;-75
2021/11/06 10:17:57;;;;;;;5.83;3.70;;;12.20;99.90;;;;;;4428221;27;656869;-76
2021/11/06 10:20:47;;;;;;;6.03;3.90;;;12.00;1.00;;;;;;4475273;27;656680;-75
2021/11/06 10:23:38;;;;;;;8.87;4.60;;;12.30;99.90;;;;;;4479343;27;655333;-75
2021/11/06 10:26:26;;;;;;;7.77;4.30;;;12.30;99.90;;;;;;4432208;27;657241;-75
2021/11/06 10:29:15;;;;;;;6.70;3.37;;;12.40;76.50;;;;;;4477443;27;656362;-73
2021/11/06 10:32:06;;;;;;;7.50;3.70;;;12.50;1.00;;;;;;4456813;27;656523;-75
2021/11/06 10:34:55;;;;;;;8.70;3.97;;;12.40;1.00;;;;;;4446452;27;655633;-75
2021/11/06 10:37:42;;;;;;;6.00;3.63;;;12.60;16.50;;;;;;4456971;27;656905;-74
2021/11/06 10:40:31;;;;;;;6.50;4.07;;;13.20;56.10;;;;;;4474676;27;656430;-76
2021/11/06 10:43:19;;;;;;;5.90;3.30;;;13.70;1.00;;;;;;4466390;27;656994;-76
2021/11/06 10:46:11;;;;;;;5.20;3.40;;;13.40;99.90;;;;;;4449561;27;655729;-76
2021/11/06 10:48:59;;;;;;;5.63;3.20;;;13.50;99.90;;;;;;4443715;27;657503;-74
2021/11/06 10:52:00;;;;;;;5.63;2.90;;;13.20;99.90;;;;;;4454640;27;657343;-76
2021/11/06 10:55:01;;;;;;;6.37;3.37;;;13.50;99.90;;;;;;4401753;28;657158;-75
2021/11/06 10:57:49;;;;;;;7.83;3.10;;;13.80;1.00;;;;;;4427198;27;656557;-74
2021/11/06 11:00:36;;;;;;;7.60;3.63;;;13.90;1.00;;;;;;4441812;27;655852;-76
2021/11/06 11:03:25;;;;;;;7.57;3.20;;;13.70;1.00;;;;;;4473173;27;655700;-76
2021/11/06 11:06:14;;;;;;;5.70;3.40;;;13.60;1.00;;;;;;4461106;27;656253;-74
2021/11/06 11:09:03;;;;;;;6.07;2.93;;;13.30;1.00;;;;;;4452377;27;655327;-75
2021/11/06 11:11:52;;;;;;;4.87;2.77;;;13.30;1.00;;;;;;4450333;27;655709;-76
2021/11/06 11:14:40;;;;;;;3.33;2.43;;;13.40;1.00;;;;;;4473697;27;655841;-73
2021/11/06 11:17:40;;;;;;;5.23;3.03;;;12.50;1.00;;;;;;4446608;28;657428;-74
2021/11/06 11:20:28;;;;;;;7.97;2.60;;;12.40;1.00;;;;;;4456510;28;655676;-74
2021/11/06 11:23:18;;;;;;;5.57;2.97;;;12.80;1.00;;;;;;4458608;28;655343;-76
2021/11/06 11:26:07;;;;;;;5.60;2.60;;;12.90;1.00;;;;;;4458488;27;656035;-76
2021/11/06 11:28:55;;;;;;;5.90;2.70;;;13.30;1.00;;;;;;4483681;27;655660;-75
2021/11/06 11:31:43;;;;;;;11.70;3.13;;;13.70;1.00;;;;;;4458554;27;656161;-75
2021/11/06 11:34:30;;;;;;;7.87;3.20;;;14.10;1.00;;;;;;4459662;27;656343;-76
2021/11/06 11:37:18;;;;;;;5.77;2.33;;;14.90;99.90;;;;;;4486817;27;656887;-75
2021/11/06 11:40:07;;;;;;;4.50;2.77;;;14.80;99.90;;;;;;4461789;27;656444;-77
2021/11/06 11:43:00;;;;;;;5.67;2.60;;;15.00;99.90;;;;;;4476626;27;656912;-74
2021/11/06 11:45:50;;;;;;;5.53;2.87;;;14.40;99.90;;;;;;4440109;27;657653;-75
2021/11/06 11:48:38;;;;;;;2.93;2.30;;;14.30;99.90;;;;;;4458601;27;657339;-77
2021/11/06 11:51:30;;;;;;;4.10;2.77;;;14.30;99.90;;;;;;4464533;27;656702;-77
2021/11/06 11:54:19;;;;;;;4.50;2.80;;;14.50;99.90;;;;;;4436738;28;657528;-75
2021/11/06 11:57:13;;;;;;;3.93;2.43;;;15.10;99.90;;;;;;4453049;27;656386;-74
2021/11/06 12:00:03;;;;;;;4.27;2.70;;;14.70;99.90;;;;;;4438921;27;657262;-75
2021/11/06 12:02:53;;;;;;;6.83;3.00;;;14.70;99.90;;;;;;4459712;27;657335;-74
2021/11/06 12:05:42;;;;;;;6.95;2.42;;;15.70;99.90;;;;;;4463858;27;656790;-75
2021/11/06 12:08:33;;;;;;;4.63;2.73;;;16.50;99.90;;;;;;4475522;27;656525;-75
2021/11/06 12:11:26;;;;;;;5.83;3.07;;;16.50;59.90;;;;;;4424666;27;657812;-75
2021/11/06 12:14:19;;;;;;;7.07;3.40;;;17.30;50.00;;;;;;4458871;27;657460;-75
2021/11/06 12:17:08;;;;;;;5.53;3.13;;;16.10;1.00;;;;;;4411953;27;657253;-75
2021/11/06 12:19:57;;;;;;;5.73;2.70;;;15.20;1.00;;;;;;4452874;27;655745;-74
2021/11/06 12:22:44;;;;;;;4.50;2.30;;;14.40;1.00;;;;;;4483354;27;655795;-75
2021/11/06 12:25:32;;;;;;;3.97;2.13;;;14.80;1.00;;;;;;4449101;27;655811;-76
2021/11/06 12:28:21;;;;;;;4.07;2.40;;;16.40;1.00;;;;;;4479414;27;655728;-75
2021/11/06 12:31:27;;;;;;;4.40;2.60;;;17.80;1.00;;;;;;4442826;27;655453;-76
2021/11/06 12:34:33;;;;;;;3.60;2.47;;;18.50;1.00;;;;;;4446444;27;655534;-76
2021/11/06 12:37:59;;;;;;;3.63;2.30;;;19.80;1.00;;;;;;4442326;27;656623;-76
2021/11/06 12:40:52;;;;;;;3.93;2.57;;;19.40;1.00;;;;;;4442510;27;655618;-75
2021/11/06 12:43:51;;;;;;;5.80;2.47;;;18.50;1.00;;;;;;4459986;27;655639;-75
2021/11/06 12:46:40;;;;;;;4.40;2.67;;;18.40;1.00;;;;;;4460599;27;656047;-76
2021/11/06 12:49:28;;;;;;;3.60;2.27;;;19.60;1.00;;;;;;4461283;27;656791;-75
2021/11/06 12:52:18;;;;;;;3.43;2.00;;;19.60;1.00;;;;;;4471086;27;655238;-76
2021/11/06 12:55:06;;;;;;;6.43;2.33;;;19.40;1.00;;;;;;4464055;27;655428;-75
2021/11/06 12:57:55;;;;;;;2.97;2.03;;;19.40;1.00;;;;;;4475610;27;656145;-73
2021/11/06 13:00:43;;;;;;;3.90;2.33;;;18.40;1.00;;;;;;4465212;27;656954;-73
2021/11/06 13:03:38;;;;;;;2.87;1.90;;;17.50;1.00;;;;;;4448656;27;655527;-74
2021/11/06 13:06:32;;;;;;;3.17;2.40;;;17.90;1.00;;;;;;4443880;27;655306;-73
2021/11/06 13:09:21;;;;;;;4.70;2.70;;;18.70;1.00;;;;;;4459341;27;657061;-73
2021/11/06 13:12:10;;;;;;;5.50;2.63;;;18.70;1.00;;;;;;4462004;27;656702;-74
2021/11/06 13:15:00;;;;;;;5.20;2.57;;;18.80;99.90;;;;;;4462126;27;655782;-75
2021/11/06 13:17:47;;;;;;;4.83;2.73;;;19.50;1.00;;;;;;4464744;27;657715;-76
2021/11/06 13:20:36;;;;;;;4.57;2.73;;;19.60;99.90;;;;;;4472157;27;655578;-76
2021/11/06 13:23:23;;;;;;;5.33;2.73;;;19.70;99.90;;;;;;4470355;27;656935;-75
2021/11/06 13:26:13;;;;;;;6.30;3.00;;;19.50;99.90;;;;;;4457539;27;656648;-76
2021/11/06 13:29:00;;;;;;;6.13;2.87;;;19.50;99.90;;;;;;4465366;27;656402;-76
2021/11/06 13:31:48;;;;;;;4.10;2.60;;;20.90;99.90;;;;;;4474345;27;657249;-75
2021/11/06 13:34:39;;;;;;;3.60;2.47;;;20.70;99.90;;;;;;4446032;27;656388;-76
2021/11/06 13:37:26;;;;;;;4.70;2.53;;;20.20;99.90;;;;;;4463637;27;656901;-77
2021/11/06 13:40:14;;;;;;;5.83;3.37;;;21.50;99.90;;;;;;4457457;28;657640;-75
2021/11/06 13:43:14;;;;;;;5.97;3.40;;;20.80;99.90;;;;;;4443920;27;657345;-77
2021/11/06 13:46:07;;;;;;;8.17;3.17;;;19.60;99.90;;;;;;4454795;27;657916;-76
2021/11/06 13:49:10;;;;;;;5.20;2.93;;;18.80;99.90;;;;;;4454745;27;656605;-77
2021/11/06 13:51:59;;;;;;;5.07;3.03;;;19.40;99.90;;;;;;4431910;27;657417;-76
2021/11/06 13:54:47;;;;;;;4.17;2.70;;;19.70;99.90;;;;;;4446235;27;657681;-76
2021/11/06 13:57:36;;;;;;;4.47;2.90;;;19.60;99.90;;;;;;4459719;27;656858;-77
2021/11/06 14:00:25;;;;;;;4.47;2.87;;;19.80;99.90;;;;;;4475833;27;657655;-77
2021/11/06 14:03:12;;;;;;;7.27;3.83;;;19.10;99.90;;;;;;4454252;27;657817;-76
2021/11/06 14:06:00;;;;;;;6.50;3.77;;;18.40;99.90;;;;;;4480492;27;656396;-78
2021/11/06 14:08:47;;;;;;;7.10;3.63;;;17.60;99.90;;;;;;4447385;27;657854;-78
2021/11/06 14:11:52;;;;;;;8.23;3.80;;;17.40;99.90;;;;;;4480162;27;656878;-78
2021/11/06 14:14:49;;;;;;;7.77;4.03;;;17.10;99.90;;;;;;4470408;27;656540;-76
2021/11/06 14:17:52;;;;;;;7.50;3.83;;;17.40;99.90;;;;;;4452410;27;656775;-78
2021/11/06 14:20:41;;;;;;;7.67;3.43;;;17.80;99.90;;;;;;4440037;27;656915;-78
2021/11/06 14:23:30;;;;;;;7.27;3.67;;;16.70;99.90;;;;;;4453727;27;658008;-78
2021/11/06 14:26:18;;;;;;;6.87;3.53;;;16.00;99.90;;;;;;4454685;27;656930;-78